createdAt,value
2024-02-13T00:01:13.364Z,62.49
2024-02-13T00:03:40.977Z,62.66
2024-02-13T00:06:10.803Z,62.59
2024-02-13T00:08:45.268Z,62.67
2024-02-13T00:11:15.100Z,62.67
2024-02-13T00:13:44.387Z,62.62
2024-02-13T00:16:13.305Z,62.84
2024-02-13T00:18:40.930Z,62.75
2024-02-13T00:21:08.956Z,62.63
2024-02-13T00:23:37.473Z,62.69
2024-02-13T00:26:08.529Z,62.65
2024-02-13T00:28:36.305Z,62.58
2024-02-13T00:31:05.949Z,62.66
2024-02-13T00:33:36.013Z,62.81
2024-02-13T00:36:03.970Z,62.48
2024-02-13T00:38:31.513Z,62.69
2024-02-13T00:40:59.056Z,62.73
2024-02-13T00:43:27.838Z,62.65
2024-02-13T00:45:56.990Z,62.68
2024-02-13T00:48:24.588Z,62.65
2024-02-13T00:50:53.725Z,62.55
2024-02-13T00:53:21.625Z,62.78
2024-02-13T00:55:49.641Z,62.66
2024-02-13T00:58:17.327Z,62.64
2024-02-13T01:00:44.863Z,62.76
2024-02-13T01:03:12.956Z,62.66
2024-02-13T01:05:42.334Z,62.85
2024-02-13T01:08:11.948Z,62.72
2024-02-13T01:10:39.593Z,62.75
2024-02-13T01:13:08.431Z,62.58
2024-02-13T01:15:35.897Z,62.54
2024-02-13T01:18:03.541Z,62.61
2024-02-13T01:20:31.148Z,62.79
2024-02-13T01:22:58.753Z,62.58
2024-02-13T01:25:27.597Z,62.98
2024-02-13T01:27:56.556Z,62.77
2024-02-13T01:30:24.801Z,62.64
2024-02-13T01:32:52.400Z,62.86
2024-02-13T01:35:20.170Z,62.56
2024-02-13T01:37:48.361Z,62.64
2024-02-13T01:40:17.407Z,62.63
2024-02-13T01:42:49.854Z,62.46
2024-02-13T01:45:18.217Z,62.58
2024-02-13T01:47:46.260Z,62.82
2024-02-13T01:50:19.312Z,62.75
2024-02-13T01:52:47.919Z,62.72
2024-02-13T01:55:17.439Z,62.80
2024-02-13T01:57:45.189Z,62.86
2024-02-13T02:00:15.339Z,62.39
2024-02-13T02:02:44.436Z,62.50
2024-02-13T02:05:12.635Z,62.67
2024-02-13T02:07:41.925Z,62.57
2024-02-13T02:10:10.087Z,62.80
2024-02-13T02:12:37.656Z,62.68
2024-02-13T02:15:05.534Z,62.79
2024-02-13T02:17:34.716Z,62.58
2024-02-13T02:20:02.211Z,62.75
2024-02-13T02:22:29.740Z,62.63
2024-02-13T02:24:57.236Z,62.61
2024-02-13T02:27:26.080Z,62.70
2024-02-13T02:29:53.850Z,62.68
2024-02-13T02:32:21.523Z,62.57
2024-02-13T02:34:49.593Z,62.41
2024-02-13T02:37:17.147Z,62.58
2024-02-13T02:39:44.663Z,62.70
2024-02-13T02:42:14.449Z,62.58
2024-02-13T02:44:43.299Z,62.65
2024-02-13T02:47:11.117Z,62.55
2024-02-13T02:49:39.503Z,62.33
2024-02-13T02:52:09.239Z,62.62
2024-02-13T02:54:37.568Z,62.60
2024-02-13T02:57:05.707Z,62.50
2024-02-13T02:59:33.436Z,62.58
2024-02-13T03:02:02.841Z,62.59
2024-02-13T03:04:30.806Z,62.76
2024-02-13T03:06:58.677Z,62.64
2024-02-13T03:09:26.837Z,62.66
2024-02-13T03:11:54.414Z,62.65
2024-02-13T03:14:22.006Z,62.56
2024-02-13T03:16:51.398Z,62.61
2024-02-13T03:19:20.276Z,62.46
2024-02-13T03:21:47.851Z,62.54
2024-02-13T03:24:15.392Z,62.50
2024-02-13T03:26:42.933Z,62.54
2024-02-13T03:29:10.458Z,62.61
2024-02-13T03:31:37.999Z,62.67
2024-02-13T03:34:05.572Z,62.50
2024-02-13T03:36:34.501Z,62.54
2024-02-13T03:39:02.026Z,62.37
2024-02-13T03:41:29.579Z,62.64
2024-02-13T03:43:57.069Z,62.67
2024-02-13T03:46:24.533Z,62.56
2024-02-13T03:48:52.090Z,62.59
2024-02-13T03:51:19.637Z,62.54
2024-02-13T03:53:49.561Z,62.76
2024-02-13T03:56:17.117Z,62.60
2024-02-13T03:58:44.948Z,62.53
2024-02-13T04:01:12.739Z,62.49
2024-02-13T04:03:40.267Z,62.71
2024-02-13T04:06:09.917Z,62.63
2024-02-13T04:08:37.529Z,62.55
2024-02-13T04:11:06.441Z,62.56
2024-02-13T04:13:33.937Z,62.60
2024-02-13T04:16:02.390Z,62.53
2024-02-13T04:18:29.889Z,62.65
2024-02-13T04:20:57.521Z,62.61
2024-02-13T04:23:25.074Z,62.66
2024-02-13T04:25:52.603Z,62.57
2024-02-13T04:28:22.563Z,62.67
2024-02-13T04:30:50.044Z,62.61
2024-02-13T04:33:18.021Z,62.60
2024-02-13T04:35:45.570Z,62.71
2024-02-13T04:38:13.115Z,62.60
2024-02-13T04:40:40.606Z,62.57
2024-02-13T04:43:08.413Z,62.64
2024-02-13T04:45:37.658Z,62.46
2024-02-13T04:48:05.747Z,62.67
2024-02-13T04:50:34.216Z,62.63
2024-02-13T04:53:01.779Z,62.44
2024-02-13T04:55:29.246Z,62.58
2024-02-13T04:57:58.194Z,62.47
2024-02-13T05:00:26.433Z,62.56
2024-02-13T05:03:04.272Z,62.54
2024-02-13T05:05:49.275Z,62.48
2024-02-13T05:08:17.242Z,62.40
2024-02-13T05:10:44.753Z,62.54
2024-02-13T05:13:16.000Z,62.44
2024-02-13T05:15:43.485Z,62.62
2024-02-13T05:18:12.970Z,62.42
2024-02-13T05:20:40.683Z,62.39
2024-02-13T05:23:11.778Z,62.59
2024-02-13T05:25:40.342Z,62.61
2024-02-13T05:28:07.982Z,62.65
2024-02-13T05:30:36.746Z,62.39
2024-02-13T05:33:05.502Z,62.47
2024-02-13T05:35:37.079Z,62.62
2024-02-13T05:38:04.647Z,62.47
2024-02-13T05:40:32.221Z,62.61
2024-02-13T05:43:00.634Z,62.35
2024-02-13T05:45:28.330Z,62.46
2024-02-13T05:47:55.894Z,62.61
2024-02-13T05:50:23.630Z,62.32
2024-02-13T05:52:53.857Z,62.50
2024-02-13T05:55:21.377Z,62.46
2024-02-13T05:57:48.851Z,62.33
2024-02-13T06:00:17.423Z,62.46
2024-02-13T06:02:45.121Z,62.71
2024-02-13T06:05:13.258Z,62.60
2024-02-13T06:07:41.286Z,62.67
2024-02-13T06:10:11.203Z,62.57
2024-02-13T06:12:39.797Z,62.55
2024-02-13T06:15:07.763Z,62.45
2024-02-13T06:17:35.412Z,62.75
2024-02-13T06:20:06.321Z,62.37
2024-02-13T06:22:33.527Z,62.51
2024-02-13T06:25:01.262Z,62.55
2024-02-13T06:27:30.173Z,62.60
2024-02-13T06:29:57.800Z,62.72
2024-02-13T06:32:25.868Z,62.53
2024-02-13T06:34:53.943Z,62.31
2024-02-13T06:37:21.769Z,62.54
2024-02-13T06:39:49.698Z,62.54
2024-02-13T06:42:17.375Z,62.48
2024-02-13T06:44:46.272Z,62.55
2024-02-13T06:47:13.812Z,62.61
2024-02-13T06:49:41.359Z,62.64
2024-02-13T06:52:08.949Z,62.62
2024-02-13T06:54:36.471Z,62.51
2024-02-13T06:57:04.055Z,62.44
2024-02-13T06:59:32.050Z,62.43
2024-02-13T07:02:01.148Z,62.52
2024-02-13T07:04:28.718Z,62.74
2024-02-13T07:07:08.634Z,62.46
2024-02-13T07:09:48.328Z,62.52
2024-02-13T07:12:15.885Z,62.38
2024-02-13T07:14:43.446Z,62.53
2024-02-13T07:17:12.600Z,62.30
2024-02-13T07:19:42.169Z,62.37
2024-02-13T07:22:10.004Z,62.45
2024-02-13T07:24:38.224Z,62.42
2024-02-13T07:27:06.500Z,62.35
2024-02-13T07:29:34.450Z,62.46
2024-02-13T07:32:02.283Z,62.47
2024-02-13T07:34:38.259Z,62.53
2024-02-13T07:37:07.078Z,62.57
2024-02-13T07:39:34.707Z,62.46
2024-02-13T07:42:02.249Z,62.68
2024-02-13T07:44:30.453Z,62.51
2024-02-13T07:46:58.224Z,62.74
2024-02-13T07:49:26.113Z,62.27
2024-02-13T07:51:54.951Z,62.84
2024-02-13T07:54:23.150Z,62.62
2024-02-13T07:56:50.839Z,62.51
2024-02-13T07:59:18.564Z,62.25
2024-02-13T08:01:46.263Z,62.64
2024-02-13T08:04:15.502Z,62.61
2024-02-13T08:06:43.611Z,62.68
2024-02-13T08:09:15.090Z,62.53
2024-02-13T08:11:44.065Z,62.39
2024-02-13T08:14:12.064Z,62.74
2024-02-13T08:16:39.593Z,62.72
2024-02-13T08:19:07.230Z,62.68
2024-02-13T08:21:34.734Z,62.74
2024-02-13T08:24:02.782Z,62.65
2024-02-13T08:26:31.673Z,62.62
2024-02-13T08:28:59.182Z,62.77
2024-02-13T08:31:27.131Z,62.70
2024-02-13T08:33:54.858Z,62.93
2024-02-13T08:36:22.658Z,62.83
2024-02-13T08:38:50.412Z,62.42
2024-02-13T08:41:17.957Z,62.73
2024-02-13T08:43:48.665Z,62.77
2024-02-13T08:46:20.213Z,62.63
2024-02-13T08:48:47.839Z,62.65
2024-02-13T08:51:15.581Z,62.87
2024-02-13T08:53:43.241Z,62.71
2024-02-13T08:56:10.757Z,62.62
2024-02-13T08:58:38.662Z,62.64
2024-02-13T09:01:07.586Z,62.75
2024-02-13T09:03:35.240Z,62.71
2024-02-13T09:06:05.717Z,62.76
2024-02-13T09:08:33.691Z,62.73
2024-02-13T09:11:01.375Z,62.42
2024-02-13T09:13:30.060Z,62.68
2024-02-13T09:15:57.896Z,62.68
2024-02-13T09:18:26.931Z,62.84
2024-02-13T09:20:55.331Z,62.64
2024-02-13T09:23:23.058Z,62.83
2024-02-13T09:25:52.727Z,62.92
2024-02-13T09:28:20.278Z,62.75
2024-02-13T09:30:48.568Z,62.78
2024-02-13T09:33:16.393Z,62.77
2024-02-13T09:35:45.589Z,62.72
2024-02-13T09:38:13.118Z,62.88
2024-02-13T09:40:42.071Z,62.78
2024-02-13T09:43:10.154Z,62.76
2024-02-13T09:45:41.022Z,62.90
2024-02-13T09:48:13.200Z,63.13
2024-02-13T09:50:44.545Z,62.96
2024-02-13T09:53:18.572Z,62.96
2024-02-13T09:55:47.338Z,62.97
2024-02-13T09:58:15.164Z,62.93
2024-02-13T10:00:43.440Z,62.97
2024-02-13T10:03:13.097Z,63.11
2024-02-13T10:05:41.738Z,63.05
2024-02-13T10:08:10.012Z,63.01
2024-02-13T10:10:39.671Z,62.83
2024-02-13T10:13:07.936Z,63.16
2024-02-13T10:15:42.023Z,63.17
2024-02-13T10:18:12.756Z,62.99
2024-02-13T10:20:41.394Z,62.97
2024-02-13T10:23:09.237Z,63.02
2024-02-13T10:25:38.218Z,63.08
2024-02-13T10:28:10.801Z,63.01
2024-02-13T10:30:39.002Z,62.77
2024-02-13T10:33:07.605Z,62.83
2024-02-13T10:35:35.413Z,62.86
2024-02-13T10:38:04.415Z,63.10
2024-02-13T10:40:35.073Z,63.06
2024-02-13T10:43:04.541Z,63.21
2024-02-13T10:45:33.421Z,63.23
2024-02-13T10:48:04.921Z,63.08
2024-02-13T10:50:32.976Z,62.86
2024-02-13T10:53:01.202Z,62.99
2024-02-13T10:55:28.712Z,63.04
2024-02-13T10:57:59.369Z,62.76
2024-02-13T11:00:27.703Z,63.17
2024-02-13T11:02:57.846Z,63.09
2024-02-13T11:05:26.674Z,63.20
2024-02-13T11:07:54.840Z,62.89
2024-02-13T11:10:30.453Z,62.92
2024-02-13T11:12:58.705Z,62.93
2024-02-13T11:15:29.479Z,63.15
2024-02-13T11:17:58.960Z,62.83
2024-02-13T11:20:29.043Z,63.14
2024-02-13T11:22:57.809Z,63.25
2024-02-13T11:25:28.918Z,63.00
2024-02-13T11:28:03.339Z,63.22
2024-02-13T11:30:31.192Z,63.03
2024-02-13T11:33:04.425Z,63.13
2024-02-13T11:35:32.631Z,63.10
2024-02-13T11:38:10.708Z,63.11
2024-02-13T11:40:40.710Z,63.01
2024-02-13T11:43:08.718Z,62.98
2024-02-13T11:45:37.450Z,63.10
2024-02-13T11:48:08.189Z,63.39
2024-02-13T11:50:37.787Z,62.99
2024-02-13T11:53:05.689Z,63.05
2024-02-13T11:55:33.682Z,63.25
2024-02-13T11:58:04.105Z,63.09
2024-02-13T12:00:31.680Z,63.10
2024-02-13T12:02:59.224Z,63.08
2024-02-13T12:05:29.576Z,63.18
2024-02-13T12:07:58.000Z,62.89
2024-02-13T12:10:25.693Z,63.09
2024-02-13T12:12:53.952Z,63.08
2024-02-13T12:15:23.839Z,63.37
2024-02-13T12:18:01.434Z,63.11
2024-02-13T12:20:31.179Z,63.24
2024-02-13T12:23:00.921Z,62.91
2024-02-13T12:25:28.465Z,63.05
2024-02-13T12:28:01.552Z,63.29
2024-02-13T12:30:29.119Z,62.90
2024-02-13T12:32:56.958Z,63.02
2024-02-13T12:35:33.317Z,63.00
2024-02-13T12:38:14.810Z,63.21
2024-02-13T12:40:43.033Z,63.43
2024-02-13T12:43:10.901Z,62.95
2024-02-13T12:45:42.708Z,63.08
2024-02-13T12:48:11.343Z,63.31
2024-02-13T12:50:39.072Z,63.29
2024-02-13T12:53:10.365Z,63.36
2024-02-13T12:55:41.760Z,63.19
2024-02-13T12:58:11.119Z,63.26
2024-02-13T13:00:40.116Z,63.29
2024-02-13T13:03:11.081Z,63.24
2024-02-13T13:05:42.646Z,63.32
2024-02-13T13:08:12.939Z,63.22
2024-02-13T13:10:41.956Z,63.04
2024-02-13T13:13:09.466Z,63.37
2024-02-13T13:15:37.030Z,63.13
2024-02-13T13:18:04.709Z,63.30
2024-02-13T13:20:34.165Z,63.06
2024-02-13T13:23:01.823Z,63.11
2024-02-13T13:25:32.801Z,63.11
2024-02-13T13:28:06.545Z,63.30
2024-02-13T13:30:34.413Z,63.24
2024-02-13T13:33:03.505Z,63.09
2024-02-13T13:35:32.309Z,63.23
2024-02-13T13:38:00.872Z,63.25
2024-02-13T13:40:34.500Z,63.36
2024-02-13T13:43:04.191Z,63.50
2024-02-13T13:45:31.757Z,63.12
2024-02-13T13:47:59.516Z,63.05
2024-02-13T13:50:28.237Z,63.18
2024-02-13T13:52:55.944Z,63.30
2024-02-13T13:55:23.469Z,63.27
2024-02-13T13:57:51.338Z,63.14
2024-02-13T14:00:22.783Z,63.32
2024-02-13T14:02:50.321Z,63.15
2024-02-13T14:05:19.218Z,63.26
2024-02-13T14:07:46.821Z,63.29
2024-02-13T14:10:14.481Z,63.16
2024-02-13T14:12:43.662Z,63.22
2024-02-13T14:15:11.286Z,63.24
2024-02-13T14:17:40.719Z,63.33
2024-02-13T14:20:11.099Z,63.36
2024-02-13T14:22:43.945Z,63.50
2024-02-13T14:25:13.465Z,63.42
2024-02-13T14:27:40.950Z,63.40
2024-02-13T14:30:08.926Z,63.17
2024-02-13T14:32:36.552Z,63.36
2024-02-13T14:35:07.249Z,63.19
2024-02-13T14:37:34.847Z,63.24
2024-02-13T14:40:02.410Z,63.18
2024-02-13T14:42:30.484Z,63.26
2024-02-13T14:44:58.065Z,63.33
2024-02-13T14:47:25.675Z,63.38
2024-02-13T14:49:53.397Z,63.36
2024-02-13T14:52:22.385Z,63.19
2024-02-13T14:54:49.978Z,63.46
2024-02-13T14:57:17.845Z,63.39
2024-02-13T14:59:46.400Z,63.17
2024-02-13T15:02:14.524Z,63.33
2024-02-13T15:04:43.060Z,63.48
2024-02-13T15:07:10.815Z,63.27
2024-02-13T15:09:39.757Z,63.28
2024-02-13T15:12:08.638Z,63.32
2024-02-13T15:14:36.590Z,63.27
2024-02-13T15:17:04.216Z,63.10
2024-02-13T15:19:31.733Z,63.00
2024-02-13T15:21:59.272Z,63.14
2024-02-13T15:24:26.848Z,63.38
2024-02-13T15:26:55.917Z,63.34
2024-02-13T15:29:24.699Z,63.11
2024-02-13T15:31:52.301Z,63.43
2024-02-13T15:34:20.014Z,63.16
2024-02-13T15:37:02.575Z,63.35
2024-02-13T15:39:48.496Z,63.21
2024-02-13T15:42:34.860Z,63.21
2024-02-13T15:45:19.939Z,63.34
2024-02-13T15:47:47.695Z,63.32
2024-02-13T15:50:19.586Z,63.16
2024-02-13T15:52:49.513Z,63.25
2024-02-13T15:55:19.466Z,63.43
2024-02-13T15:57:48.468Z,63.52
2024-02-13T16:00:16.734Z,63.40
2024-02-13T16:02:45.086Z,63.20
2024-02-13T16:05:16.485Z,63.48
2024-02-13T16:07:47.819Z,63.39
2024-02-13T16:10:16.092Z,63.39
2024-02-13T16:12:44.418Z,63.37
2024-02-13T16:15:13.765Z,63.17
2024-02-13T16:17:41.539Z,63.09
2024-02-13T16:20:10.049Z,63.30
2024-02-13T16:22:38.641Z,63.36
2024-02-13T16:25:07.526Z,63.06
2024-02-13T16:27:35.163Z,63.34
2024-02-13T16:30:02.941Z,63.39
2024-02-13T16:32:36.383Z,63.34
2024-02-13T16:35:09.711Z,63.37
2024-02-13T16:37:44.329Z,63.42
2024-02-13T16:40:14.953Z,63.28
2024-02-13T16:42:42.508Z,63.30
2024-02-13T16:45:10.370Z,63.42
2024-02-13T16:47:39.487Z,63.35
2024-02-13T16:50:13.265Z,63.46
2024-02-13T16:52:40.993Z,63.27
2024-02-13T16:55:09.599Z,63.29
2024-02-13T16:57:41.307Z,63.30
2024-02-13T17:00:11.651Z,63.47
2024-02-13T17:02:41.208Z,63.31
2024-02-13T17:05:12.434Z,63.52
2024-02-13T17:07:40.539Z,63.38
2024-02-13T17:10:11.658Z,63.34
2024-02-13T17:12:39.308Z,63.42
2024-02-13T17:15:08.643Z,63.28
2024-02-13T17:17:39.317Z,63.30
2024-02-13T17:20:12.291Z,63.29
2024-02-13T17:22:40.157Z,63.25
2024-02-13T17:25:12.564Z,63.26
2024-02-13T17:27:42.333Z,63.26
2024-02-13T17:30:12.904Z,63.12
2024-02-13T17:32:41.447Z,63.26
2024-02-13T17:35:11.090Z,63.27
2024-02-13T17:37:38.797Z,63.17
2024-02-13T17:40:08.977Z,63.18
2024-02-13T17:42:36.538Z,63.25
2024-02-13T17:45:05.739Z,63.12
2024-02-13T17:47:33.653Z,63.31
2024-02-13T17:50:01.331Z,63.24
2024-02-13T17:52:30.642Z,63.29
2024-02-13T17:54:59.439Z,63.16
2024-02-13T17:57:28.753Z,63.11
2024-02-13T17:59:57.623Z,63.49
2024-02-13T18:02:25.229Z,63.56
2024-02-13T18:04:52.737Z,63.55
2024-02-13T18:07:20.301Z,63.44
2024-02-13T18:09:50.920Z,63.36
2024-02-13T18:12:18.391Z,63.50
2024-02-13T18:14:48.573Z,63.39
2024-02-13T18:17:17.670Z,63.52
2024-02-13T18:19:45.282Z,63.34
2024-02-13T18:22:13.159Z,63.31
2024-02-13T18:24:43.134Z,63.51
2024-02-13T18:27:12.334Z,63.16
2024-02-13T18:29:39.901Z,63.44
2024-02-13T18:32:08.297Z,63.28
2024-02-13T18:34:35.952Z,63.31
2024-02-13T18:37:05.384Z,63.44
2024-02-13T18:39:34.173Z,63.20
2024-02-13T18:42:01.683Z,63.33
2024-02-13T18:44:32.090Z,63.15
2024-02-13T18:46:59.578Z,63.33
2024-02-13T18:49:27.215Z,63.21
2024-02-13T18:51:54.763Z,63.20
2024-02-13T18:54:26.178Z,63.42
2024-02-13T18:56:54.167Z,63.33
2024-02-13T18:59:26.052Z,63.37
2024-02-13T19:01:58.890Z,63.33
2024-02-13T19:04:26.441Z,63.22
2024-02-13T19:06:54.415Z,63.30
2024-02-13T19:09:22.031Z,63.35
2024-02-13T19:11:52.501Z,63.29
2024-02-13T19:14:21.164Z,63.01
2024-02-13T19:16:51.530Z,63.17
2024-02-13T19:19:20.389Z,63.32
2024-02-13T19:21:50.421Z,63.22
2024-02-13T19:24:18.002Z,63.20
2024-02-13T19:26:46.795Z,63.22
2024-02-13T19:29:14.353Z,63.23
2024-02-13T19:31:42.736Z,63.05
2024-02-13T19:34:10.524Z,63.15
2024-02-13T19:36:39.682Z,63.03
2024-02-13T19:39:09.029Z,63.10
2024-02-13T19:41:40.762Z,63.10
2024-02-13T19:44:09.954Z,63.26
2024-02-13T19:46:37.432Z,63.17
2024-02-13T19:49:05.825Z,63.14
2024-02-13T19:51:34.152Z,63.15
2024-02-13T19:54:03.244Z,63.23
2024-02-13T19:56:30.799Z,63.21
2024-02-13T19:58:58.293Z,63.04
2024-02-13T20:01:25.781Z,63.19
2024-02-13T20:03:53.320Z,63.35
2024-02-13T20:06:20.870Z,63.18
2024-02-13T20:08:48.437Z,63.00
2024-02-13T20:11:18.005Z,63.40
2024-02-13T20:13:45.570Z,63.05
2024-02-13T20:16:13.103Z,63.26
2024-02-13T20:18:40.824Z,63.21
2024-02-13T20:21:15.853Z,63.00
2024-02-13T20:23:46.854Z,63.13
2024-02-13T20:26:15.103Z,62.94
2024-02-13T20:28:44.025Z,62.88
2024-02-13T20:31:11.579Z,63.21
2024-02-13T20:33:39.309Z,63.23
2024-02-13T20:36:08.461Z,63.06
2024-02-13T20:38:37.928Z,63.01
2024-02-13T20:41:09.344Z,63.09
2024-02-13T20:43:38.127Z,63.08
2024-02-13T20:46:07.113Z,63.18
2024-02-13T20:48:34.678Z,63.01
2024-02-13T20:51:03.072Z,63.11
2024-02-13T20:53:31.830Z,63.38
2024-02-13T20:56:03.177Z,63.11
2024-02-13T20:58:33.392Z,63.10
2024-02-13T21:01:01.026Z,63.23
2024-02-13T21:03:30.623Z,63.20
2024-02-13T21:05:58.362Z,63.02
2024-02-13T21:08:26.949Z,63.15
2024-02-13T21:10:54.490Z,63.18
2024-02-13T21:13:22.016Z,63.03
2024-02-13T21:15:49.479Z,63.03
2024-02-13T21:18:17.223Z,63.04
2024-02-13T21:20:47.648Z,62.99
2024-02-13T21:23:32.916Z,63.02
2024-02-13T21:26:00.490Z,62.68
2024-02-13T21:28:28.010Z,62.74
2024-02-13T21:31:00.280Z,62.62
2024-02-13T21:33:28.907Z,62.25
2024-02-13T21:36:00.773Z,62.54
2024-02-13T21:38:28.352Z,62.50
2024-02-13T21:40:56.149Z,62.46
2024-02-13T21:43:25.282Z,62.45
2024-02-13T21:45:53.073Z,62.41
2024-02-13T21:48:20.767Z,62.52
2024-02-13T21:50:48.361Z,62.46
2024-02-13T21:53:17.286Z,62.58
2024-02-13T21:55:44.820Z,62.48
2024-02-13T21:58:12.653Z,62.40
2024-02-13T22:00:40.257Z,62.70
2024-02-13T22:03:07.851Z,62.62
2024-02-13T22:05:35.506Z,62.85
2024-02-13T22:08:03.069Z,62.45
2024-02-13T22:10:32.346Z,62.69
2024-02-13T22:12:59.898Z,63.02
2024-02-13T22:15:27.417Z,62.60
2024-02-13T22:17:55.090Z,62.59
2024-02-13T22:20:22.902Z,62.57
2024-02-13T22:22:50.495Z,62.64
2024-02-13T22:25:19.477Z,62.59
2024-02-13T22:27:48.383Z,62.66
2024-02-13T22:30:15.922Z,62.71
2024-02-13T22:32:44.253Z,62.72
2024-02-13T22:35:11.997Z,62.59
2024-02-13T22:37:39.534Z,62.68
2024-02-13T22:40:08.579Z,62.61
2024-02-13T22:42:36.155Z,62.60
2024-02-13T22:45:05.570Z,62.70
2024-02-13T22:47:34.194Z,62.75
2024-02-13T22:50:01.749Z,62.72
2024-02-13T22:52:29.311Z,62.76
2024-02-13T22:54:56.804Z,62.62
2024-02-13T22:57:24.295Z,62.58
2024-02-13T22:59:51.807Z,62.52
2024-02-13T23:02:20.663Z,62.61
2024-02-13T23:04:51.597Z,62.84
2024-02-13T23:07:19.629Z,62.68
2024-02-13T23:09:47.228Z,62.42
2024-02-13T23:12:15.755Z,62.54
2024-02-13T23:14:43.309Z,62.55
2024-02-13T23:17:11.533Z,62.48
2024-02-13T23:19:40.944Z,62.48
2024-02-13T23:22:10.381Z,62.71
2024-02-13T23:24:38.907Z,62.32
2024-02-13T23:27:06.636Z,62.49
2024-02-13T23:29:34.252Z,62.55
2024-02-13T23:32:01.709Z,62.49
2024-02-13T23:34:29.274Z,62.58
2024-02-13T23:36:58.098Z,62.56
2024-02-13T23:39:25.608Z,62.62
2024-02-13T23:41:53.131Z,62.29
2024-02-13T23:44:20.706Z,62.40
2024-02-13T23:46:48.205Z,62.13
2024-02-13T23:49:15.875Z,62.45
2024-02-13T23:51:43.447Z,62.17
2024-02-13T23:54:12.340Z,62.43
2024-02-13T23:56:39.891Z,62.32
2024-02-13T23:59:07.517Z,62.33
